Time;durP1;ratioP1;P1;durP2;ratioP2;P2;SDS_P1;SDS_P2;PMS_P1;PMS_P2;Temp;Humidity;BMP_temperature;BMP_pressure;BME280_temperature;BME280_humidity;BME280_pressure;Samples;Min_cycle;Max_cycle;Signal;HPM_P1;HPM_P2
2022/07/09 00:01:00;;;;;;;5.53;5.43;;;;;;;;;;4989944;28;20955;-88
2022/07/09 00:03:26;;;;;;;7.40;6.17;;;;;;;;;;4991645;28;20472;-88
2022/07/09 00:05:52;;;;;;;5.90;5.60;;;;;;;;;;4984089;28;20448;-88
2022/07/09 00:08:18;;;;;;;5.77;5.57;;;;;;;;;;4974722;28;20447;-88
2022/07/09 00:10:44;;;;;;;7.43;7.07;;;;;;;;;;4989843;28;20500;-87
2022/07/09 00:13:10;;;;;;;6.60;6.10;;;;;;;;;;4990073;28;20500;-89
2022/07/09 00:15:36;;;;;;;5.77;5.57;;;;;;;;;;4985895;28;20424;-88
2022/07/09 00:18:02;;;;;;;6.00;5.60;;;;;;;;;;4969783;28;20931;-89
2022/07/09 00:20:28;;;;;;;6.53;6.20;;;;;;;;;;4986706;28;20412;-88
2022/07/09 00:22:54;;;;;;;7.40;6.50;;;;;;;;;;4990910;28;20460;-92
2022/07/09 00:25:20;;;;;;;6.70;6.30;;;;;;;;;;4987503;28;20408;-88
2022/07/09 00:27:47;;;;;;;7.23;6.63;;;;;;;;;;4980589;28;20401;-89
2022/07/09 00:30:13;;;;;;;8.53;6.83;;;;;;;;;;4994132;28;20507;-88
2022/07/09 00:32:39;;;;;;;6.23;5.73;;;;;;;;;;4974672;28;20519;-88
2022/07/09 00:35:05;;;;;;;6.10;5.80;;;;;;;;;;4997197;28;20434;-88
2022/07/09 00:37:31;;;;;;;6.17;5.90;;;;;;;;;;4976137;28;20441;-88
2022/07/09 00:39:57;;;;;;;7.13;6.83;;;;;;;;;;4995299;28;20440;-88
2022/07/09 00:42:24;;;;;;;6.70;6.40;;;;;;;;;;4963708;28;20468;-88
2022/07/09 00:44:50;;;;;;;5.90;5.63;;;;;;;;;;4997019;28;20439;-88
2022/07/09 00:47:16;;;;;;;6.40;6.00;;;;;;;;;;4984186;28;20500;-88
2022/07/09 00:49:43;;;;;;;7.03;6.53;;;;;;;;;;4998676;28;20432;-89
2022/07/09 00:52:12;;;;;;;6.83;6.53;;;;;;;;;;4995150;28;20440;-88
2022/07/09 00:54:38;;;;;;;7.30;6.80;;;;;;;;;;4995185;28;20434;-88
2022/07/09 00:57:06;;;;;;;7.00;6.63;;;;;;;;;;4982531;28;20978;-88
2022/07/09 00:59:33;;;;;;;6.50;6.00;;;;;;;;;;4993194;28;20506;-89
2022/07/09 01:02:00;;;;;;;6.60;6.30;;;;;;;;;;4992835;28;20866;-89
2022/07/09 01:04:26;;;;;;;9.57;8.77;;;;;;;;;;4994847;28;20542;-87
2022/07/09 01:06:52;;;;;;;7.60;7.03;;;;;;;;;;4986121;28;20425;-87
2022/07/09 01:09:18;;;;;;;6.87;6.50;;;;;;;;;;4994715;28;20968;-88
2022/07/09 01:11:44;;;;;;;8.27;5.97;;;;;;;;;;4986713;28;20480;-88
2022/07/09 01:14:10;;;;;;;7.30;6.73;;;;;;;;;;4977723;28;20464;-88
2022/07/09 01:16:39;;;;;;;7.30;6.80;;;;;;;;;;4994905;28;20420;-88
2022/07/09 01:19:06;;;;;;;8.10;7.67;;;;;;;;;;5006726;28;20419;-88
2022/07/09 01:21:32;;;;;;;6.90;6.57;;;;;;;;;;4985001;28;20476;-89
2022/07/09 01:23:58;;;;;;;7.17;6.87;;;;;;;;;;4989817;28;20510;-89
2022/07/09 01:26:24;;;;;;;7.73;7.10;;;;;;;;;;4992099;28;20432;-89
2022/07/09 01:28:51;;;;;;;7.83;7.37;;;;;;;;;;4992723;28;20409;-89
2022/07/09 01:31:17;;;;;;;7.60;7.10;;;;;;;;;;4991749;28;20903;-89
2022/07/09 01:33:45;;;;;;;7.20;6.63;;;;;;;;;;4994047;28;20400;-89
2022/07/09 01:36:11;;;;;;;7.10;6.80;;;;;;;;;;4984184;28;20492;-87
2022/07/09 01:38:37;;;;;;;7.93;7.40;;;;;;;;;;4974128;28;20923;-87
2022/07/09 01:41:04;;;;;;;8.00;7.33;;;;;;;;;;4989319;28;20472;-88
2022/07/09 01:43:30;;;;;;;6.43;6.23;;;;;;;;;;4997753;28;20444;-86
2022/07/09 01:45:57;;;;;;;7.30;6.90;;;;;;;;;;4991664;28;20825;-88
2022/07/09 01:48:23;;;;;;;7.67;7.10;;;;;;;;;;4993356;28;20409;-88
2022/07/09 01:50:49;;;;;;;7.30;6.80;;;;;;;;;;4987856;28;20424;-87
2022/07/09 01:53:14;;;;;;;6.43;6.13;;;;;;;;;;4972014;28;20511;-86
2022/07/09 01:55:40;;;;;;;6.90;6.50;;;;;;;;;;4989943;28;20408;-86
2022/07/09 01:58:06;;;;;;;6.63;6.33;;;;;;;;;;4992949;28;20405;-87
2022/07/09 02:00:32;;;;;;;7.63;7.30;;;;;;;;;;4990548;28;20442;-87
2022/07/09 02:02:58;;;;;;;7.83;7.30;;;;;;;;;;4969774;28;20493;-87
2022/07/09 02:05:24;;;;;;;8.43;7.63;;;;;;;;;;4990188;28;20436;-87
2022/07/09 02:07:50;;;;;;;8.07;7.40;;;;;;;;;;4971917;28;20544;-88
2022/07/09 02:10:16;;;;;;;7.67;7.30;;;;;;;;;;4990159;28;20789;-87
2022/07/09 02:12:42;;;;;;;8.97;8.33;;;;;;;;;;4971644;28;20456;-87
2022/07/09 02:15:10;;;;;;;7.47;7.07;;;;;;;;;;4992610;28;20519;-85
2022/07/09 02:17:36;;;;;;;8.80;8.27;;;;;;;;;;4972901;28;20429;-87
2022/07/09 02:20:02;;;;;;;7.90;7.40;;;;;;;;;;4991425;28;20516;-86
2022/07/09 02:22:28;;;;;;;7.33;7.13;;;;;;;;;;4975648;28;20446;-87
2022/07/09 02:24:54;;;;;;;7.10;6.80;;;;;;;;;;4989053;28;20407;-86
2022/07/09 02:27:20;;;;;;;7.90;7.40;;;;;;;;;;4988899;28;20830;-86
2022/07/09 02:29:46;;;;;;;7.53;7.13;;;;;;;;;;4991671;28;21065;-86
2022/07/09 02:32:12;;;;;;;7.50;7.10;;;;;;;;;;4975678;28;20453;-87
2022/07/09 02:34:39;;;;;;;7.23;6.87;;;;;;;;;;4989456;28;20428;-87
2022/07/09 02:37:05;;;;;;;7.30;7.00;;;;;;;;;;4977580;28;20445;-87
2022/07/09 02:39:32;;;;;;;7.27;6.80;;;;;;;;;;4990219;28;20924;-87
2022/07/09 02:41:58;;;;;;;7.53;7.10;;;;;;;;;;4978644;28;20448;-86
2022/07/09 02:44:24;;;;;;;6.93;6.63;;;;;;;;;;4990757;28;20466;-86
2022/07/09 02:46:50;;;;;;;8.23;7.77;;;;;;;;;;4977524;28;20438;-86
2022/07/09 02:49:16;;;;;;;7.57;7.20;;;;;;;;;;4989364;28;20490;-86
2022/07/09 02:51:42;;;;;;;7.23;6.60;;;;;;;;;;4987484;28;20432;-87
2022/07/09 02:54:07;;;;;;;8.13;7.53;;;;;;;;;;4989724;28;20440;-87
2022/07/09 02:56:34;;;;;;;8.20;7.50;;;;;;;;;;4969419;28;20864;-87
2022/07/09 02:59:00;;;;;;;8.90;8.13;;;;;;;;;;4993317;28;20428;-87
2022/07/09 03:01:26;;;;;;;8.90;8.20;;;;;;;;;;4981115;28;21034;-86
2022/07/09 03:03:52;;;;;;;8.20;7.73;;;;;;;;;;4971859;28;20504;-87
2022/07/09 03:06:18;;;;;;;7.80;7.17;;;;;;;;;;4987514;28;20474;-87
2022/07/09 03:08:44;;;;;;;8.70;7.90;;;;;;;;;;4992987;28;20837;-87
2022/07/09 03:11:10;;;;;;;10.77;8.43;;;;;;;;;;4978442;28;20520;-87
2022/07/09 03:13:36;;;;;;;9.33;8.10;;;;;;;;;;4988468;28;20801;-87
2022/07/09 03:16:03;;;;;;;8.47;7.80;;;;;;;;;;5005729;28;20413;-87
2022/07/09 03:18:29;;;;;;;8.87;8.20;;;;;;;;;;5007481;28;20468;-88
2022/07/09 03:20:55;;;;;;;8.47;7.70;;;;;;;;;;4985402;28;20436;-87
2022/07/09 03:23:21;;;;;;;8.30;7.67;;;;;;;;;;4993598;28;20456;-86
2022/07/09 03:25:47;;;;;;;8.67;8.07;;;;;;;;;;4960235;28;20402;-86
2022/07/09 03:28:13;;;;;;;8.30;7.83;;;;;;;;;;4990800;28;20415;-86
2022/07/09 03:30:39;;;;;;;9.37;8.60;;;;;;;;;;4991685;28;20424;-86
2022/07/09 03:33:05;;;;;;;9.57;8.87;;;;;;;;;;4975477;28;20881;-86
2022/07/09 03:35:31;;;;;;;8.77;8.17;;;;;;;;;;4975697;28;20959;-86
2022/07/09 03:37:57;;;;;;;8.67;8.07;;;;;;;;;;4989772;28;20448;-86
2022/07/09 03:40:22;;;;;;;9.33;8.73;;;;;;;;;;4973781;28;20475;-86
2022/07/09 03:42:49;;;;;;;8.07;7.30;;;;;;;;;;4987998;28;20483;-86
2022/07/09 03:45:15;;;;;;;8.57;8.17;;;;;;;;;;4977832;28;20871;-87
2022/07/09 03:47:41;;;;;;;8.23;7.70;;;;;;;;;;4989300;28;20444;-86
2022/07/09 03:50:07;;;;;;;8.47;7.97;;;;;;;;;;4978536;28;20433;-87
2022/07/09 03:52:33;;;;;;;10.07;8.47;;;;;;;;;;4988828;28;20448;-87
2022/07/09 03:55:00;;;;;;;9.60;9.10;;;;;;;;;;4980740;28;20468;-87
2022/07/09 03:57:26;;;;;;;8.43;8.10;;;;;;;;;;4989862;28;20817;-87
2022/07/09 03:59:52;;;;;;;8.80;8.17;;;;;;;;;;4995438;28;20444;-88
2022/07/09 04:02:17;;;;;;;8.73;8.13;;;;;;;;;;4996510;28;20471;-87
2022/07/09 04:04:43;;;;;;;9.13;8.60;;;;;;;;;;4997041;28;20464;-86
2022/07/09 04:07:10;;;;;;;7.93;7.40;;;;;;;;;;4996396;28;20776;-86
2022/07/09 04:09:36;;;;;;;8.53;8.13;;;;;;;;;;4998014;28;20448;-87
2022/07/09 04:12:02;;;;;;;9.10;8.40;;;;;;;;;;4997786;28;20495;-87
2022/07/09 04:14:28;;;;;;;9.23;8.73;;;;;;;;;;4985141;28;20892;-87
2022/07/09 04:16:54;;;;;;;8.93;8.43;;;;;;;;;;4996881;28;20428;-87
2022/07/09 04:19:20;;;;;;;9.27;8.67;;;;;;;;;;4985840;28;20445;-86
2022/07/09 04:21:46;;;;;;;8.67;7.97;;;;;;;;;;4996649;28;20444;-88
2022/07/09 04:24:15;;;;;;;9.70;8.70;;;;;;;;;;4984271;28;21333;-87
2022/07/09 04:26:41;;;;;;;9.57;8.80;;;;;;;;;;4976391;28;20460;-87
2022/07/09 04:29:07;;;;;;;9.60;8.93;;;;;;;;;;4987234;28;20445;-86
2022/07/09 04:31:33;;;;;;;9.30;8.60;;;;;;;;;;4976468;28;20946;-87
2022/07/09 04:33:59;;;;;;;10.17;9.67;;;;;;;;;;4988726;28;20773;-86
2022/07/09 04:36:25;;;;;;;9.63;8.93;;;;;;;;;;4977053;28;20906;-87
2022/07/09 04:38:51;;;;;;;10.57;9.93;;;;;;;;;;4990468;28;20424;-86
2022/07/09 04:41:17;;;;;;;9.23;8.80;;;;;;;;;;4976159;28;20814;-86
2022/07/09 04:43:43;;;;;;;9.67;8.97;;;;;;;;;;4991641;28;20563;-86
2022/07/09 04:46:10;;;;;;;9.33;8.80;;;;;;;;;;4980875;28;20413;-87
2022/07/09 04:48:36;;;;;;;9.27;8.77;;;;;;;;;;4992100;28;20870;-86
2022/07/09 04:51:02;;;;;;;9.80;9.17;;;;;;;;;;4975697;28;20954;-87
2022/07/09 04:53:28;;;;;;;9.20;8.50;;;;;;;;;;4991322;28;20448;-87
2022/07/09 04:55:53;;;;;;;7.70;7.30;;;;;;;;;;4975748;28;20440;-86
2022/07/09 04:58:20;;;;;;;8.13;7.63;;;;;;;;;;4997178;28;20431;-87
2022/07/09 05:00:49;;;;;;;8.83;8.33;;;;;;;;;;4955049;28;20501;-88
2022/07/09 05:03:15;;;;;;;9.53;8.10;;;;;;;;;;4995746;28;20476;-88
2022/07/09 05:05:41;;;;;;;8.53;7.93;;;;;;;;;;4974939;28;20520;-86
2022/07/09 05:08:07;;;;;;;6.97;6.50;;;;;;;;;;4994329;28;20427;-86
2022/07/09 05:10:34;;;;;;;7.20;6.80;;;;;;;;;;4974024;28;20436;-87
2022/07/09 05:13:01;;;;;;;6.70;6.50;;;;;;;;;;4993231;28;20429;-88
2022/07/09 05:15:27;;;;;;;7.50;7.10;;;;;;;;;;4973527;28;21083;-87
2022/07/09 05:17:53;;;;;;;7.20;6.80;;;;;;;;;;4994839;28;20456;-87
2022/07/09 05:20:19;;;;;;;6.93;6.23;;;;;;;;;;4994432;28;20512;-87
2022/07/09 05:22:45;;;;;;;7.27;7.07;;;;;;;;;;5012784;28;20440;-91
2022/07/09 05:25:11;;;;;;;7.33;7.03;;;;;;;;;;4996263;28;20416;-91
2022/07/09 05:27:49;;;;;;;7.73;7.17;;;;;;;;;;5000592;28;20420;-92
2022/07/09 05:30:15;;;;;;;7.73;7.33;;;;;;;;;;4999138;28;20428;-91
2022/07/09 05:32:42;;;;;;;8.10;7.37;;;;;;;;;;4976943;28;20410;-89
2022/07/09 05:35:08;;;;;;;8.70;8.10;;;;;;;;;;4991345;28;20432;-89
2022/07/09 05:37:40;;;;;;;9.03;8.53;;;;;;;;;;4985850;28;20517;-89
2022/07/09 05:40:07;;;;;;;10.63;9.93;;;;;;;;;;4962207;28;20415;-90
2022/07/09 05:42:33;;;;;;;11.60;10.47;;;;;;;;;;4279705;28;10000749;-90
2022/07/09 05:44:59;;;;;;;12.23;11.00;;;;;;;;;;4974173;28;20517;-89
2022/07/09 05:47:26;;;;;;;11.50;10.30;;;;;;;;;;4966514;28;20445;-89
2022/07/09 05:49:54;;;;;;;11.23;10.53;;;;;;;;;;4973411;28;20442;-89
2022/07/09 05:52:20;;;;;;;10.60;9.90;;;;;;;;;;4969093;28;20845;-90
2022/07/09 05:54:46;;;;;;;12.00;11.20;;;;;;;;;;4985486;28;20539;-90
2022/07/09 05:57:12;;;;;;;14.23;13.23;;;;;;;;;;4965053;28;20461;-90
2022/07/09 05:59:38;;;;;;;12.73;12.00;;;;;;;;;;4963372;28;20405;-90
2022/07/09 06:02:05;;;;;;;14.47;13.40;;;;;;;;;;4988339;28;20469;-90
2022/07/09 06:04:31;;;;;;;14.33;13.40;;;;;;;;;;4981015;28;20469;-91
2022/07/09 06:06:57;;;;;;;14.37;13.27;;;;;;;;;;4963908;28;20468;-90
2022/07/09 06:09:23;;;;;;;13.20;12.30;;;;;;;;;;4974027;28;20442;-91
2022/07/09 06:11:49;;;;;;;13.27;12.37;;;;;;;;;;4965319;28;20947;-89
2022/07/09 06:14:16;;;;;;;15.23;14.07;;;;;;;;;;4998072;28;20425;-90
2022/07/09 06:16:42;;;;;;;14.83;13.73;;;;;;;;;;4980648;28;20434;-90
2022/07/09 06:19:09;;;;;;;16.30;14.97;;;;;;;;;;4970361;28;20968;-91
2022/07/09 06:21:35;;;;;;;15.10;14.10;;;;;;;;;;4977572;28;20479;-89
2022/07/09 06:24:01;;;;;;;14.30;13.30;;;;;;;;;;4983336;28;20992;-91
2022/07/09 06:26:27;;;;;;;15.63;14.20;;;;;;;;;;4975665;28;20444;-89
2022/07/09 06:29:02;;;;;;;13.70;12.60;;;;;;;;;;5121138;23;20485;-92
2022/07/09 06:31:28;;;;;;;14.47;13.27;;;;;;;;;;4960467;28;20884;-87
2022/07/09 06:33:54;;;;;;;15.10;13.60;;;;;;;;;;4987277;28;20524;-87
2022/07/09 06:36:20;;;;;;;15.80;14.70;;;;;;;;;;4972391;28;20432;-86
2022/07/09 06:41:33;;;;;;;17.53;16.10;;;;;;;;;;4969280;28;20774;-86
2022/07/09 06:43:59;;;;;;;15.33;14.13;;;;;;;;;;4977025;28;20458;-86
2022/07/09 06:46:26;;;;;;;16.03;14.63;;;;;;;;;;4969704;28;20430;-87
2022/07/09 06:48:52;;;;;;;17.80;15.93;;;;;;;;;;4953186;28;20460;-87
2022/07/09 06:51:18;;;;;;;13.13;12.00;;;;;;;;;;4953284;28;20436;-87
2022/07/09 06:53:44;;;;;;;15.00;13.80;;;;;;;;;;4964494;28;20481;-86
2022/07/09 06:56:10;;;;;;;15.63;14.27;;;;;;;;;;4987323;28;20508;-87
2022/07/09 06:58:36;;;;;;;15.60;14.00;;;;;;;;;;4954106;28;20440;-86
2022/07/09 07:01:02;;;;;;;14.50;13.30;;;;;;;;;;4988644;28;20444;-86
2022/07/09 07:03:28;;;;;;;16.40;13.63;;;;;;;;;;4971788;28;20457;-88
2022/07/09 07:05:54;;;;;;;14.67;13.23;;;;;;;;;;4992479;28;20523;-87
2022/07/09 07:08:20;;;;;;;16.37;14.03;;;;;;;;;;4954007;28;20448;-87
2022/07/09 07:10:46;;;;;;;16.03;14.00;;;;;;;;;;4981119;28;20418;-87
2022/07/09 07:13:12;;;;;;;14.90;13.20;;;;;;;;;;4963527;28;20445;-86
2022/07/09 07:15:38;;;;;;;15.67;14.07;;;;;;;;;;4974845;28;20420;-87
2022/07/09 07:18:04;;;;;;;12.97;11.57;;;;;;;;;;4989671;28;20429;-87
2022/07/09 07:20:30;;;;;;;12.17;11.00;;;;;;;;;;4991056;28;20432;-86
2022/07/09 07:22:56;;;;;;;13.63;11.50;;;;;;;;;;4971743;28;20460;-88
2022/07/09 07:25:22;;;;;;;23.67;11.77;;;;;;;;;;4987913;28;20749;-87
2022/07/09 07:27:48;;;;;;;14.03;11.50;;;;;;;;;;4967279;28;20446;-87
2022/07/09 07:30:14;;;;;;;12.50;9.40;;;;;;;;;;4971731;28;20517;-87
2022/07/09 07:32:40;;;;;;;9.20;8.30;;;;;;;;;;4972395;28;20447;-86
2022/07/09 07:35:07;;;;;;;8.97;8.23;;;;;;;;;;4987899;28;20470;-86
2022/07/09 07:37:33;;;;;;;10.30;9.20;;;;;;;;;;4973178;28;20428;-87
2022/07/09 07:39:59;;;;;;;8.57;7.77;;;;;;;;;;4981587;28;20887;-87
2022/07/09 07:42:25;;;;;;;8.70;8.00;;;;;;;;;;4954874;28;20492;-85
2022/07/09 07:44:54;;;;;;;8.33;7.80;;;;;;;;;;4990885;28;20464;-86
2022/07/09 07:47:20;;;;;;;9.07;7.80;;;;;;;;;;4965033;28;20421;-86
2022/07/09 07:49:46;;;;;;;8.43;7.73;;;;;;;;;;4967582;28;20695;-87
2022/07/09 07:52:12;;;;;;;8.27;7.43;;;;;;;;;;4972646;28;20413;-87
2022/07/09 07:54:38;;;;;;;9.87;8.97;;;;;;;;;;4968037;28;20451;-86
2022/07/09 07:57:05;;;;;;;7.83;7.23;;;;;;;;;;4971895;28;20408;-85
2022/07/09 07:59:31;;;;;;;7.90;7.40;;;;;;;;;;4968758;28;20477;-88
2022/07/09 08:02:00;;;;;;;7.60;7.00;;;;;;;;;;4956072;28;20459;-87
2022/07/09 08:04:27;;;;;;;8.40;7.43;;;;;;;;;;4622441;28;9999975;-86
2022/07/09 08:06:53;;;;;;;7.87;6.37;;;;;;;;;;4951598;28;20284;-87
2022/07/09 08:09:20;;;;;;;6.30;5.80;;;;;;;;;;4973163;28;20821;-87
2022/07/09 08:11:46;;;;;;;5.67;5.30;;;;;;;;;;4952102;28;20429;-88
2022/07/09 08:14:15;;;;;;;5.10;4.73;;;;;;;;;;4965828;28;20447;-89
2022/07/09 08:16:42;;;;;;;4.80;4.37;;;;;;;;;;4949960;28;20480;-88
2022/07/09 08:19:08;;;;;;;4.80;4.60;;;;;;;;;;4951914;28;20504;-86
2022/07/09 08:21:34;;;;;;;5.80;5.30;;;;;;;;;;4970947;28;20437;-87
2022/07/09 08:24:04;;;;;;;6.07;5.63;;;;;;;;;;4949832;28;20469;-86
2022/07/09 08:26:30;;;;;;;4.70;4.27;;;;;;;;;;4951297;28;20484;-87
2022/07/09 08:28:57;;;;;;;3.67;3.47;;;;;;;;;;4949642;28;20474;-86
2022/07/09 08:31:23;;;;;;;3.80;3.60;;;;;;;;;;4930781;29;20514;-88
2022/07/09 08:33:50;;;;;;;4.70;4.40;;;;;;;;;;4926350;29;20471;-87
2022/07/09 08:36:17;;;;;;;4.20;4.00;;;;;;;;;;4933432;29;20515;-83
2022/07/09 08:38:43;;;;;;;4.40;4.00;;;;;;;;;;4928787;29;20482;-87
2022/07/09 08:41:09;;;;;;;5.87;4.20;;;;;;;;;;4936046;29;20438;-87
2022/07/09 08:43:40;;;;;;;5.03;4.60;;;;;;;;;;4946170;29;20469;-89
2022/07/09 08:46:08;;;;;;;4.90;4.60;;;;;;;;;;4928188;29;20430;-88
2022/07/09 08:48:35;;;;;;;4.90;4.50;;;;;;;;;;4933822;29;20427;-88
2022/07/09 08:51:04;;;;;;;5.70;5.20;;;;;;;;;;4952953;29;20484;-87
2022/07/09 08:53:30;;;;;;;5.63;5.10;;;;;;;;;;4941476;29;20455;-88
2022/07/09 08:55:57;;;;;;;7.33;5.60;;;;;;;;;;4952006;29;20473;-89
2022/07/09 08:58:24;;;;;;;7.40;6.70;;;;;;;;;;4931219;28;20420;-87
2022/07/09 09:00:50;;;;;;;6.10;5.60;;;;;;;;;;4952009;29;20454;-86
2022/07/09 09:03:22;;;;;;;6.87;6.37;;;;;;;;;;4952849;29;20512;-86
2022/07/09 09:06:00;;;;;;;8.13;7.20;;;;;;;;;;4934538;29;20422;-87
2022/07/09 09:08:26;;;;;;;6.20;5.83;;;;;;;;;;4953151;29;20417;-86
2022/07/09 09:10:53;;;;;;;4.60;4.40;;;;;;;;;;4599762;28;9999885;-85
2022/07/09 09:13:21;;;;;;;6.03;5.57;;;;;;;;;;4936913;28;20215;-86
2022/07/09 09:15:47;;;;;;;5.23;5.00;;;;;;;;;;4931517;29;20454;-86
2022/07/09 09:18:14;;;;;;;7.03;5.40;;;;;;;;;;4938879;29;20582;-88
2022/07/09 09:20:45;;;;;;;5.80;5.43;;;;;;;;;;4939035;29;20431;-86
2022/07/09 09:23:16;;;;;;;5.60;5.10;;;;;;;;;;4931966;29;20458;-87
2022/07/09 09:25:42;;;;;;;4.70;4.30;;;;;;;;;;4934719;29;20440;-88
2022/07/09 09:28:09;;;;;;;3.87;3.60;;;;;;;;;;4935414;29;20419;-87
2022/07/09 09:30:41;;;;;;;4.43;4.13;;;;;;;;;;4930370;29;20463;-87
2022/07/09 09:33:10;;;;;;;3.37;3.27;;;;;;;;;;4926763;29;20438;-88
2022/07/09 09:35:39;;;;;;;3.50;3.30;;;;;;;;;;4933226;29;20507;-88
2022/07/09 09:38:05;;;;;;;3.67;3.43;;;;;;;;;;4939106;29;20501;-88
2022/07/09 09:40:31;;;;;;;2.90;2.77;;;;;;;;;;4949505;29;20426;-87
2022/07/09 09:43:04;;;;;;;1.77;1.67;;;;;;;;;;4933228;29;20443;-88
2022/07/09 09:45:30;;;;;;;1.90;1.90;;;;;;;;;;4945088;28;20475;-88
2022/07/09 09:48:00;;;;;;;1.40;1.40;;;;;;;;;;4956039;28;20436;-88
2022/07/09 09:50:26;;;;;;;2.03;2.03;;;;;;;;;;4937403;29;20674;-88
2022/07/09 09:52:54;;;;;;;2.20;2.20;;;;;;;;;;4934693;29;20474;-88
2022/07/09 09:55:21;;;;;;;4.70;1.80;;;;;;;;;;4931735;29;20534;-88
2022/07/09 09:57:47;;;;;;;2.27;1.13;;;;;;;;;;4934809;28;20451;-88
2022/07/09 10:00:16;;;;;;;1.50;1.50;;;;;;;;;;4948927;29;20426;-88
2022/07/09 10:02:46;;;;;;;1.10;1.10;;;;;;;;;;4937363;29;20451;-87
2022/07/09 10:05:12;;;;;;;1.90;1.90;;;;;;;;;;4952123;29;20796;-89
2022/07/09 10:07:39;;;;;;;1.60;1.50;;;;;;;;;;4938782;29;20431;-89
2022/07/09 10:10:06;;;;;;;1.70;1.70;;;;;;;;;;4951882;29;20440;-88
2022/07/09 10:12:38;;;;;;;1.63;1.60;;;;;;;;;;4930573;29;20588;-87
2022/07/09 10:15:09;;;;;;;1.67;1.60;;;;;;;;;;4933663;29;20443;-88
2022/07/09 10:17:42;;;;;;;2.00;1.90;;;;;;;;;;4930524;29;20450;-89
2022/07/09 10:20:11;;;;;;;1.87;1.77;;;;;;;;;;4933887;29;20423;-87
2022/07/09 10:22:49;;;;;;;1.67;1.57;;;;;;;;;;4947537;29;20457;-89
2022/07/09 10:25:29;;;;;;;2.60;2.50;;;;;;;;;;4917711;29;20435;-89
2022/07/09 10:28:00;;;;;;;2.10;2.00;;;;;;;;;;4967004;28;20422;-89
2022/07/09 10:30:30;;;;;;;1.63;1.43;;;;;;;;;;4943610;29;20533;-87
2022/07/09 10:33:23;;;;;;;1.50;1.50;;;;;;;;;;4954561;29;20430;-89
2022/07/09 10:35:55;;;;;;;1.97;1.97;;;;;;;;;;4949493;28;20454;-89
2022/07/09 10:38:24;;;;;;;2.50;2.50;;;;;;;;;;4948198;29;20496;-87
2022/07/09 10:41:01;;;;;;;1.83;1.83;;;;;;;;;;4953001;29;20565;-90
2022/07/09 10:43:40;;;;;;;1.70;1.70;;;;;;;;;;4936521;28;20501;-89
2022/07/09 10:46:13;;;;;;;2.17;2.07;;;;;;;;;;4952952;29;20425;-88
2022/07/09 10:48:39;;;;;;;1.60;1.50;;;;;;;;;;4937993;29;20441;-89
2022/07/09 10:51:05;;;;;;;1.73;1.73;;;;;;;;;;4954911;29;20917;-89
2022/07/09 10:53:39;;;;;;;2.10;2.10;;;;;;;;;;4950432;29;21214;-88
2022/07/09 10:56:07;;;;;;;2.30;2.20;;;;;;;;;;4933582;29;20902;-88
2022/07/09 10:58:34;;;;;;;2.57;2.37;;;;;;;;;;4952935;28;20924;-88
2022/07/09 11:01:08;;;;;;;4.10;3.00;;;;;;;;;;4955486;29;20419;-86
2022/07/09 11:03:36;;;;;;;2.20;2.20;;;;;;;;;;4951420;28;20488;-88
2022/07/09 11:06:11;;;;;;;2.36;2.10;;;;;;;;;;4598691;29;10000566;-90
2022/07/09 11:08:44;;;;;;;3.03;2.83;;;;;;;;;;4930151;29;20418;-88
2022/07/09 11:11:35;;;;;;;1.90;1.90;;;;;;;;;;4910982;29;20421;-86
2022/07/09 11:14:11;;;;;;;2.13;2.10;;;;;;;;;;4941221;29;20440;-88
2022/07/09 11:16:38;;;;;;;2.47;2.27;;;;;;;;;;4936583;29;20427;-88
2022/07/09 11:19:17;;;;;;;2.43;2.43;;;;;;;;;;4948813;29;20434;-89
2022/07/09 11:21:48;;;;;;;1.67;1.67;;;;;;;;;;4942489;29;20435;-89
2022/07/09 11:24:14;;;;;;;1.17;1.17;;;;;;;;;;4944176;29;20470;-87
2022/07/09 11:26:49;;;;;;;1.30;1.30;;;;;;;;;;4935595;29;20466;-88
2022/07/09 11:29:19;;;;;;;1.30;1.30;;;;;;;;;;4943023;28;20503;-88
2022/07/09 11:31:49;;;;;;;1.40;1.20;;;;;;;;;;4963891;28;20449;-89
2022/07/09 11:34:19;;;;;;;1.37;1.07;;;;;;;;;;4971637;28;20430;-87
2022/07/09 11:36:51;;;;;;;1.53;1.53;;;;;;;;;;4965166;28;20480;-88
2022/07/09 11:39:23;;;;;;;1.13;1.13;;;;;;;;;;4970926;28;20467;-88
2022/07/09 11:41:50;;;;;;;3.90;1.80;;;;;;;;;;4969861;28;20492;-88
2022/07/09 11:44:28;;;;;;;2.03;1.93;;;;;;;;;;4970021;28;20472;-89
2022/07/09 11:47:04;;;;;;;2.93;1.60;;;;;;;;;;4955002;28;20422;-88
2022/07/09 11:49:33;;;;;;;1.47;1.47;;;;;;;;;;4970243;28;20428;-87
2022/07/09 11:52:04;;;;;;;3.03;1.73;;;;;;;;;;4971225;28;20437;-89
2022/07/09 11:54:41;;;;;;;2.40;2.30;;;;;;;;;;4949610;28;20443;-88
2022/07/09 11:57:20;;;;;;;1.70;1.70;;;;;;;;;;4972740;28;20480;-87
2022/07/09 11:59:46;;;;;;;2.70;2.70;;;;;;;;;;4944302;28;20454;-89
2022/07/09 12:02:22;;;;;;;2.40;2.40;;;;;;;;;;4960058;28;20521;-89
2022/07/09 12:04:48;;;;;;;3.33;3.20;;;;;;;;;;4967308;28;20472;-88
2022/07/09 12:07:17;;;;;;;2.13;2.13;;;;;;;;;;4951421;28;20537;-89
2022/07/09 12:09:43;;;;;;;2.70;2.67;;;;;;;;;;4968779;28;20467;-87
2022/07/09 12:12:09;;;;;;;4.30;2.97;;;;;;;;;;4969051;28;20433;-87
2022/07/09 12:14:36;;;;;;;3.37;3.20;;;;;;;;;;4967420;28;20524;-86
2022/07/09 12:17:04;;;;;;;3.63;3.63;;;;;;;;;;4970141;28;20414;-86
2022/07/09 12:19:31;;;;;;;3.73;3.43;;;;;;;;;;4957406;28;20544;-87
2022/07/09 12:21:57;;;;;;;3.63;3.53;;;;;;;;;;4975637;28;20996;-87
2022/07/09 12:24:24;;;;;;;4.13;4.13;;;;;;;;;;4970137;28;21002;-88
2022/07/09 12:26:49;;;;;;;4.50;4.30;;;;;;;;;;4955976;28;20421;-90
2022/07/09 12:29:16;;;;;;;4.90;4.70;;;;;;;;;;4953751;28;20470;-87
2022/07/09 12:31:42;;;;;;;4.20;4.20;;;;;;;;;;4938086;29;20441;-92
2022/07/09 12:34:08;;;;;;;4.80;4.40;;;;;;;;;;4937411;29;21076;-90
2022/07/09 12:36:34;;;;;;;4.67;4.47;;;;;;;;;;4937010;29;20430;-88
2022/07/09 12:39:00;;;;;;;4.50;4.30;;;;;;;;;;4959112;29;20493;-89
2022/07/09 12:41:27;;;;;;;5.70;5.50;;;;;;;;;;4947353;29;20489;-90
2022/07/09 12:44:00;;;;;;;7.07;6.87;;;;;;;;;;4956644;29;20476;-90
2022/07/09 12:46:26;;;;;;;5.90;5.70;;;;;;;;;;4938079;29;20426;-89
2022/07/09 12:48:52;;;;;;;6.33;6.00;;;;;;;;;;4957757;29;21024;-90
2022/07/09 12:51:19;;;;;;;5.16;4.78;;;;;;;;;;4255172;28;10022510;-88
2022/07/09 12:53:45;;;;;;;6.00;5.90;;;;;;;;;;4933779;29;20467;-89
2022/07/09 12:56:11;;;;;;;7.00;6.40;;;;;;;;;;4937440;29;20427;-90
2022/07/09 12:58:37;;;;;;;12.30;9.07;;;;;;;;;;4934328;29;20476;-89
2022/07/09 13:01:03;;;;;;;14.07;12.87;;;;;;;;;;4945368;29;20878;-88
2022/07/09 13:03:30;;;;;;;12.97;11.80;;;;;;;;;;4953013;29;20461;-88
2022/07/09 13:05:56;;;;;;;15.20;14.20;;;;;;;;;;4948649;29;20526;-89
2022/07/09 13:08:22;;;;;;;15.37;14.37;;;;;;;;;;4940068;28;20455;-88
2022/07/09 13:10:48;;;;;;;15.53;14.30;;;;;;;;;;4957675;29;20514;-90
2022/07/09 13:13:18;;;;;;;17.00;15.60;;;;;;;;;;4937014;28;20435;-89
2022/07/09 13:15:44;;;;;;;18.63;17.17;;;;;;;;;;4941044;29;20447;-90
2022/07/09 13:18:11;;;;;;;12.80;11.87;;;;;;;;;;4936989;29;20969;-88
2022/07/09 13:20:37;;;;;;;12.10;11.03;;;;;;;;;;4940250;29;20443;-88
2022/07/09 13:23:03;;;;;;;11.83;10.60;;;;;;;;;;4934435;29;20452;-89
2022/07/09 13:25:29;;;;;;;11.93;11.07;;;;;;;;;;4934254;29;20433;-89
2022/07/09 13:27:55;;;;;;;11.43;10.73;;;;;;;;;;4941755;29;20890;-87
2022/07/09 13:30:25;;;;;;;9.43;8.77;;;;;;;;;;4946696;29;20462;-88
2022/07/09 13:32:51;;;;;;;10.60;9.67;;;;;;;;;;4953436;28;21011;-88
2022/07/09 13:35:24;;;;;;;8.57;7.97;;;;;;;;;;4950677;28;20426;-87
2022/07/09 13:37:50;;;;;;;8.93;8.33;;;;;;;;;;4953794;28;20964;-87
2022/07/09 13:40:16;;;;;;;8.87;8.17;;;;;;;;;;4951523;28;20473;-88
2022/07/09 13:42:42;;;;;;;6.80;6.53;;;;;;;;;;4953383;28;20545;-89
2022/07/09 13:45:08;;;;;;;6.47;6.17;;;;;;;;;;4966959;28;20584;-89
2022/07/09 13:47:38;;;;;;;6.90;6.40;;;;;;;;;;4958104;28;20508;-88
2022/07/09 13:50:05;;;;;;;7.43;6.93;;;;;;;;;;4952270;28;20451;-89
2022/07/09 13:52:31;;;;;;;12.27;11.47;;;;;;;;;;4954569;28;20744;-88
2022/07/09 13:54:57;;;;;;;6.67;5.80;;;;;;;;;;4989370;28;20576;-88
2022/07/09 13:57:27;;;;;;;6.30;6.00;;;;;;;;;;4958263;28;20727;-89
2022/07/09 13:59:55;;;;;;;6.27;5.97;;;;;;;;;;4958527;28;20426;-88
2022/07/09 14:02:21;;;;;;;14.13;12.97;;;;;;;;;;4972556;28;20421;-88
2022/07/09 14:04:49;;;;;;;5.60;5.43;;;;;;;;;;4981050;28;20465;-89
2022/07/09 14:07:17;;;;;;;4.70;4.40;;;;;;;;;;4981329;28;20469;-89
2022/07/09 14:09:44;;;;;;;4.50;4.40;;;;;;;;;;4981882;28;20440;-88
2022/07/09 14:12:13;;;;;;;5.33;5.13;;;;;;;;;;4984427;28;20844;-89
2022/07/09 14:14:42;;;;;;;4.70;4.50;;;;;;;;;;4986429;28;21069;-87
2022/07/09 14:17:08;;;;;;;4.30;4.13;;;;;;;;;;4984157;28;20440;-89
2022/07/09 14:19:37;;;;;;;5.50;4.57;;;;;;;;;;4983854;28;20429;-89
2022/07/09 14:22:05;;;;;;;4.97;4.47;;;;;;;;;;4980082;28;20442;-89
2022/07/09 14:24:31;;;;;;;4.17;3.93;;;;;;;;;;4960892;28;21016;-88
2022/07/09 14:27:05;;;;;;;5.70;4.57;;;;;;;;;;4962592;28;20441;-86
2022/07/09 14:29:51;;;;;;;3.87;3.57;;;;;;;;;;4985052;28;20452;-88
2022/07/09 14:32:24;;;;;;;2.67;2.57;;;;;;;;;;4991760;28;20504;-90
2022/07/09 14:34:53;;;;;;;2.83;2.70;;;;;;;;;;4944791;28;20847;-89
2022/07/09 14:37:30;;;;;;;2.13;2.03;;;;;;;;;;4988170;28;20443;-90
2022/07/09 14:39:56;;;;;;;2.90;2.90;;;;;;;;;;5000976;28;20523;-87
2022/07/09 14:42:25;;;;;;;2.63;2.53;;;;;;;;;;4967648;28;20437;-88